Time;durP1;ratioP1;P1;durP2;ratioP2;P2;SDS_P1;SDS_P2;PMS_P1;PMS_P2;Temp;Humidity;BMP_temperature;BMP_pressure;BME280_temperature;BME280_humidity;BME280_pressure;Samples;Min_cycle;Max_cycle;Signal;HPM_P1;HPM_P2
2021/10/31 00:01:36;;;;;;;26.20;14.40;;;;;;;6.70;100.00;95111.66;5027853;28;20045;-78
2021/10/31 00:04:01;;;;;;;28.83;15.05;;;;;;;6.70;100.00;95116.88;5031633;28;20094;-78
2021/10/31 00:06:27;;;;;;;26.60;14.85;;;;;;;6.50;100.00;95125.41;5030299;28;20038;-78
2021/10/31 00:08:52;;;;;;;27.10;14.77;;;;;;;6.39;100.00;95137.63;5031950;28;20044;-78
2021/10/31 00:11:18;;;;;;;28.02;15.13;;;;;;;6.26;100.00;95153.72;5030173;28;20603;-78
2021/10/31 00:13:45;;;;;;;27.95;15.75;;;;;;;6.46;100.00;95160.16;5030596;28;20050;-78
2021/10/31 00:16:10;;;;;;;26.45;14.35;;;;;;;6.38;100.00;95161.41;5027177;28;20753;-78
2021/10/31 00:18:36;;;;;;;30.30;15.75;;;;;;;6.36;100.00;95159.03;5030531;28;20107;-79
2021/10/31 00:21:02;;;;;;;23.48;13.77;;;;;;;5.88;100.00;95155.50;5026513;28;20049;-78
2021/10/31 00:23:27;;;;;;;27.30;14.82;;;;;;;5.67;100.00;95151.91;5011069;28;20046;-78
2021/10/31 00:25:53;;;;;;;31.58;16.23;;;;;;;5.70;100.00;95167.88;5019748;28;20107;-78
2021/10/31 00:28:19;;;;;;;28.30;14.98;;;;;;;5.78;100.00;95173.69;5030314;28;20038;-78
2021/10/31 00:30:45;;;;;;;27.30;15.35;;;;;;;5.98;100.00;95176.50;5031167;28;20143;-78
2021/10/31 00:33:10;;;;;;;27.92;13.95;;;;;;;5.90;100.00;95174.31;5030835;28;20050;-78
2021/10/31 00:35:36;;;;;;;25.48;15.13;;;;;;;5.83;100.00;95178.94;5030512;28;20044;-78
2021/10/31 00:38:03;;;;;;;25.50;14.77;;;;;;;5.55;100.00;95171.09;5031593;28;20052;-78
2021/10/31 00:40:29;;;;;;;26.20;14.77;;;;;;;5.43;100.00;95177.50;5029363;28;20063;-78
2021/10/31 00:42:55;;;;;;;27.50;14.88;;;;;;;5.43;100.00;95185.31;5019059;28;20562;-78
2021/10/31 00:45:21;;;;;;;26.00;14.30;;;;;;;5.64;100.00;95184.50;5021997;28;20041;-78
2021/10/31 00:47:46;;;;;;;26.77;13.98;;;;;;;5.64;100.00;95184.50;5031580;28;20060;-78
2021/10/31 00:50:12;;;;;;;26.30;14.07;;;;;;;5.62;100.00;95181.34;5029102;28;20044;-78
2021/10/31 00:52:38;;;;;;;28.05;13.85;;;;;;;5.68;100.00;95177.75;5029499;28;20048;-78
2021/10/31 00:55:05;;;;;;;27.80;14.40;;;;;;;5.61;100.00;95179.78;5031111;28;20112;-78
2021/10/31 00:57:31;;;;;;;26.98;13.80;;;;;;;5.65;100.00;95180.88;5017863;28;20046;-77
2021/10/31 00:59:58;;;;;;;25.30;13.70;;;;;;;5.53;100.00;95174.97;5015666;28;20052;-78
2021/10/31 01:02:24;;;;;;;26.55;14.80;;;;;;;5.29;100.00;95162.22;5029005;28;20535;-78
2021/10/31 01:04:55;;;;;;;25.02;14.32;;;;;;;5.20;100.00;95153.22;5032375;28;20068;-78
2021/10/31 01:07:52;;;;;;;26.10;14.23;;;;;;;5.14;100.00;95157.63;5034085;28;20120;-78
2021/10/31 01:10:28;;;;;;;28.52;14.00;;;;;;;5.37;100.00;95167.00;5033576;28;20149;-78
2021/10/31 01:13:12;;;;;;;26.60;13.32;;;;;;;5.38;100.00;95173.78;5027092;28;20044;-78
2021/10/31 01:16:15;;;;;;;26.42;14.05;;;;;;;5.29;100.00;95170.03;5032641;28;20033;-78
2021/10/31 01:19:15;;;;;;;24.75;12.70;;;;;;;5.22;100.00;95161.63;5014385;28;20065;-78
2021/10/31 01:22:03;;;;;;;25.60;12.93;;;;;;;5.18;100.00;95157.91;5023502;28;20384;-78
2021/10/31 01:25:07;;;;;;;26.00;12.95;;;;;;;5.28;100.00;95155.41;5019187;28;20081;-78
2021/10/31 01:27:45;;;;;;;24.50;12.60;;;;;;;5.28;100.00;95163.25;5031407;28;20054;-78
2021/10/31 01:30:36;;;;;;;25.60;13.10;;;;;;;5.13;100.00;95168.28;5033193;28;20084;-78
2021/10/31 01:33:40;;;;;;;25.88;12.98;;;;;;;5.25;100.00;95166.34;5028481;28;20038;-78
2021/10/31 01:36:19;;;;;;;25.88;12.57;;;;;;;5.15;100.00;95156.56;5025747;28;20054;-78
2021/10/31 01:39:04;;;;;;;29.10;12.77;;;;;;;4.96;100.00;95174.34;5014365;28;20120;-78
2021/10/31 01:41:44;;;;;;;23.75;12.55;;;;;;;5.09;100.00;95177.63;5019605;28;20087;-78
2021/10/31 01:44:36;;;;;;;27.17;12.15;;;;;;;5.19;100.00;95177.75;5021897;28;20042;-78
2021/10/31 01:47:14;;;;;;;22.27;11.98;;;;;;;5.06;100.00;95178.09;5025086;28;20064;-78
2021/10/31 01:49:53;;;;;;;20.45;12.18;;;;;;;5.20;100.00;95179.31;5029897;28;20041;-78
2021/10/31 01:52:30;;;;;;;21.48;11.88;;;;;;;5.22;100.00;95182.47;5023406;28;20061;-77
2021/10/31 01:55:00;;;;;;;20.23;11.40;;;;;;;5.07;100.00;95166.66;5032820;28;20046;-78
2021/10/31 01:57:27;;;;;;;19.42;11.45;;;;;;;5.06;100.00;95167.66;5033306;28;20096;-78
2021/10/31 02:00:00;;;;;;;22.42;11.90;;;;;;;4.84;100.00;95163.22;5032325;28;20517;-78
2021/10/31 02:02:29;;;;;;;21.73;12.00;;;;;;;4.73;100.00;95169.34;5031258;28;20049;-78
2021/10/31 02:04:57;;;;;;;19.60;10.93;;;;;;;4.79;100.00;95163.19;5033089;28;20045;-78
2021/10/31 02:07:23;;;;;;;21.65;10.65;;;;;;;5.02;100.00;95168.16;5032166;28;20053;-78
2021/10/31 02:09:51;;;;;;;19.42;11.02;;;;;;;4.96;100.00;95173.56;5032376;28;20064;-78
2021/10/31 02:12:20;;;;;;;20.08;11.55;;;;;;;4.84;100.00;95165.84;5032510;28;20053;-78
2021/10/31 02:14:46;;;;;;;23.38;10.60;;;;;;;5.09;100.00;95167.97;5031742;28;20042;-78
2021/10/31 02:17:15;;;;;;;20.40;10.57;;;;;;;4.96;100.00;95168.34;5032320;28;20047;-78
2021/10/31 02:19:42;;;;;;;20.75;10.35;;;;;;;4.79;100.00;95160.56;5032530;28;20665;-78
2021/10/31 02:22:14;;;;;;;20.98;10.45;;;;;;;4.75;100.00;95170.69;5021962;28;20069;-78
2021/10/31 02:24:41;;;;;;;17.92;10.45;;;;;;;4.78;100.00;95169.41;5030285;28;20454;-78
2021/10/31 02:27:15;;;;;;;16.40;10.20;;;;;;;4.71;100.00;95174.00;5030274;28;20111;-77
2021/10/31 02:29:55;;;;;;;18.10;10.23;;;;;;;4.38;100.00;95173.03;5033197;28;20049;-78
2021/10/31 02:32:23;;;;;;;19.52;10.15;;;;;;;4.42;100.00;95174.13;5033079;28;20049;-78
2021/10/31 02:34:50;;;;;;;22.38;10.20;;;;;;;4.64;100.00;95174.97;5025532;28;20052;-78
2021/10/31 02:37:15;;;;;;;16.95;10.02;;;;;;;4.64;100.00;95177.59;5032051;28;20422;-77
2021/10/31 02:39:42;;;;;;;19.50;9.68;;;;;;;4.51;100.00;95172.69;5031400;28;20041;-78
2021/10/31 02:42:07;;;;;;;16.65;9.68;;;;;;;4.42;100.00;95163.69;5032307;28;20065;-78
2021/10/31 02:44:33;;;;;;;17.98;9.68;;;;;;;4.25;100.00;95168.91;5032635;28;20045;-78
2021/10/31 02:46:59;;;;;;;20.00;9.20;;;;;;;4.24;100.00;95162.13;5031994;28;20053;-77
2021/10/31 02:49:28;;;;;;;18.88;9.30;;;;;;;4.43;100.00;95160.84;5023966;28;20112;-78
2021/10/31 02:52:08;;;;;;;17.70;9.68;;;;;;;4.47;100.00;95166.41;5030934;28;20049;-77
2021/10/31 02:54:51;;;;;;;15.50;8.75;;;;;;;4.42;100.00;95174.13;5016598;28;20046;-78
2021/10/31 02:57:28;;;;;;;18.77;10.27;;;;;;;4.37;100.00;95168.81;5025214;28;20042;-78
2021/10/31 03:00:01;;;;;;;17.65;8.40;;;;;;;4.09;100.00;95170.50;5030943;28;20053;-78
2021/10/31 03:02:27;;;;;;;15.52;8.98;;;;;;;4.08;100.00;95163.69;5031864;28;20069;-78
2021/10/31 03:04:53;;;;;;;16.45;8.90;;;;;;;3.85;100.00;95173.25;5031198;28;20068;-78
2021/10/31 03:07:21;;;;;;;16.85;9.13;;;;;;;3.70;100.00;95186.78;5031524;28;20049;-78
2021/10/31 03:09:47;;;;;;;16.98;8.90;;;;;;;3.99;100.00;95184.94;5021839;28;20042;-78
2021/10/31 03:12:14;;;;;;;14.57;8.48;;;;;;;4.13;100.00;95182.81;5027218;28;20582;-78
2021/10/31 03:14:39;;;;;;;15.55;8.52;;;;;;;3.76;100.00;95172.03;5030889;28;20522;-78
2021/10/31 03:17:06;;;;;;;14.32;8.60;;;;;;;3.64;100.00;95178.09;5031547;28;20049;-78
2021/10/31 03:19:33;;;;;;;17.48;8.15;;;;;;;3.81;100.00;95185.16;5025518;28;20045;-78
2021/10/31 03:21:59;;;;;;;14.52;7.50;;;;;;;3.80;100.00;95193.97;5031020;28;20037;-78
2021/10/31 03:24:25;;;;;;;16.35;8.05;;;;;;;3.68;100.00;95181.03;5032398;28;20045;-78
2021/10/31 03:26:50;;;;;;;14.43;7.85;;;;;;;3.79;100.00;95181.97;5030817;28;20048;-78
2021/10/31 03:29:16;;;;;;;15.02;7.95;;;;;;;3.67;100.00;95183.88;5023759;28;20100;-78
2021/10/31 03:31:42;;;;;;;14.75;7.60;;;;;;;3.47;100.00;95187.66;5025446;28;20095;-77
2021/10/31 03:34:08;;;;;;;18.70;8.75;;;;;;;3.45;100.00;95181.91;5031545;28;20064;-78
2021/10/31 03:36:34;;;;;;;14.65;7.78;;;;;;;3.43;100.00;95181.34;5046920;28;20479;-78
2021/10/31 03:38:59;;;;;;;15.80;7.93;;;;;;;3.57;100.00;95177.44;5032109;28;20809;-78
2021/10/31 03:41:25;;;;;;;13.90;7.70;;;;;;;3.69;100.00;95181.81;5031548;28;20053;-78
2021/10/31 03:43:50;;;;;;;12.85;7.65;;;;;;;3.78;100.00;95180.41;5031151;28;20045;-78
2021/10/31 03:46:16;;;;;;;13.95;7.60;;;;;;;3.68;100.00;95180.22;5031063;28;20049;-78
2021/10/31 03:48:41;;;;;;;16.42;8.02;;;;;;;3.54;100.00;95175.31;5023957;28;20557;-78
2021/10/31 03:51:07;;;;;;;15.00;7.55;;;;;;;3.47;100.00;95174.66;5026206;28;20050;-78
2021/10/31 03:53:33;;;;;;;12.80;7.55;;;;;;;3.36;100.00;95172.88;5028610;28;20042;-78
2021/10/31 03:55:59;;;;;;;13.95;7.80;;;;;;;3.64;100.00;95175.47;5028791;28;20065;-78
2021/10/31 03:58:25;;;;;;;11.85;6.97;;;;;;;3.66;100.00;95182.28;5031319;28;20049;-78
2021/10/31 04:00:50;;;;;;;13.90;6.75;;;;;;;3.39;100.00;95177.63;5030903;28;20048;-78
2021/10/31 04:03:16;;;;;;;12.50;7.05;;;;;;;3.41;100.00;95183.41;5031398;28;20065;-77
2021/10/31 04:05:42;;;;;;;13.60;7.00;;;;;;;3.38;100.00;95176.06;5030328;28;20490;-78
2021/10/31 04:08:07;;;;;;;12.45;6.72;;;;;;;3.21;100.00;95168.97;5024837;28;20495;-78
2021/10/31 04:10:33;;;;;;;12.20;7.00;;;;;;;3.24;100.00;95173.72;5020217;28;20038;-78
2021/10/31 04:12:58;;;;;;;11.25;6.22;;;;;;;3.38;100.00;95173.47;5022211;28;20572;-78
2021/10/31 04:15:24;;;;;;;12.95;6.70;;;;;;;3.40;100.00;95174.00;5024965;28;20064;-78
2021/10/31 04:17:50;;;;;;;14.00;6.95;;;;;;;3.26;100.00;95171.69;5031942;28;20103;-78
2021/10/31 04:20:17;;;;;;;16.00;6.95;;;;;;;3.23;100.00;95172.16;5031397;28;20049;-78
2021/10/31 04:22:45;;;;;;;13.75;6.90;;;;;;;3.22;100.00;95162.75;5029923;28;20038;-78
2021/10/31 04:25:11;;;;;;;12.18;7.00;;;;;;;3.09;100.00;95163.81;5031427;28;20065;-78
2021/10/31 04:27:37;;;;;;;12.40;6.32;;;;;;;3.14;100.00;95160.50;5028926;28;20049;-78
2021/10/31 04:30:08;;;;;;;11.45;6.75;;;;;;;3.32;100.00;95161.34;5020698;28;20041;-77
2021/10/31 04:32:34;;;;;;;12.30;6.30;;;;;;;3.15;100.00;95159.50;5025913;28;20077;-78
2021/10/31 04:35:00;;;;;;;11.93;5.95;;;;;;;3.24;100.00;95155.50;5033093;28;20053;-78
2021/10/31 04:37:27;;;;;;;13.13;6.18;;;;;;;3.24;100.00;95150.31;5034604;28;20061;-78
2021/10/31 04:39:53;;;;;;;9.82;5.78;;;;;;;3.10;100.00;95151.59;5034690;28;20120;-77
2021/10/31 04:42:19;;;;;;;10.85;5.78;;;;;;;3.14;100.00;95154.53;5032243;28;20556;-78
2021/10/31 04:44:44;;;;;;;11.07;5.55;;;;;;;3.19;100.00;95150.22;5029753;28;20033;-78
2021/10/31 04:47:10;;;;;;;12.77;5.97;;;;;;;3.06;100.00;95147.88;5034005;28;20045;-78
2021/10/31 04:49:36;;;;;;;10.70;5.40;;;;;;;3.19;100.00;95142.41;5031036;28;20053;-78
2021/10/31 04:52:02;;;;;;;9.25;5.50;;;;;;;3.35;100.00;95145.28;5020211;28;20050;-78
2021/10/31 04:54:28;;;;;;;11.77;4.80;;;;;;;3.28;100.00;95145.44;5033278;28;20060;-78
2021/10/31 04:56:54;;;;;;;9.07;4.97;;;;;;;3.13;100.00;95148.53;5031328;28;20042;-78
2021/10/31 04:59:19;;;;;;;10.48;5.32;;;;;;;3.13;100.00;95143.31;5034862;28;20042;-78
2021/10/31 05:01:45;;;;;;;8.73;4.63;;;;;;;3.13;100.00;95138.13;5035170;28;20384;-78
2021/10/31 05:04:12;;;;;;;9.68;5.05;;;;;;;3.01;100.00;95134.78;5032539;28;20045;-78
2021/10/31 05:06:38;;;;;;;11.02;5.40;;;;;;;2.94;100.00;95135.72;5033607;28;20422;-78
2021/10/31 05:09:04;;;;;;;10.73;5.75;;;;;;;2.94;100.00;95135.72;5026870;28;20097;-78
2021/10/31 05:11:30;;;;;;;9.38;5.28;;;;;;;3.02;100.00;95125.97;5024659;28;20143;-78
2021/10/31 05:13:55;;;;;;;11.40;5.70;;;;;;;2.95;100.00;95131.28;5017736;28;20528;-78
2021/10/31 05:16:21;;;;;;;11.13;5.53;;;;;;;2.81;100.00;95130.75;5032853;28;20041;-78
2021/10/31 05:18:47;;;;;;;11.20;5.00;;;;;;;2.66;100.00;95120.03;5034906;28;20056;-78
2021/10/31 05:21:12;;;;;;;9.63;4.78;;;;;;;2.63;100.00;95128.28;5035067;28;20403;-77
2021/10/31 05:23:38;;;;;;;10.02;5.00;;;;;;;2.80;100.00;95123.97;5034802;28;20046;-78
2021/10/31 05:26:03;;;;;;;9.20;5.10;;;;;;;2.70;100.00;95113.38;5021345;28;20041;-78
2021/10/31 05:28:31;;;;;;;10.73;5.07;;;;;;;2.67;100.00;95113.84;5028019;28;20045;-78
2021/10/31 05:30:57;;;;;;;9.65;4.70;;;;;;;2.75;100.00;95111.66;5033879;28;20538;-78
2021/10/31 05:33:23;;;;;;;9.48;5.07;;;;;;;2.74;100.00;95110.09;5034470;28;20052;-78
2021/10/31 05:35:51;;;;;;;9.70;4.85;;;;;;;2.75;100.00;95116.09;5030752;28;20042;-78
2021/10/31 05:38:19;;;;;;;7.93;4.57;;;;;;;2.76;100.00;95112.47;5033516;28;20440;-78
2021/10/31 05:40:47;;;;;;;8.90;4.70;;;;;;;2.82;100.00;95106.34;5034341;28;20072;-78
2021/10/31 05:43:12;;;;;;;10.00;4.82;;;;;;;2.70;100.00;95108.19;5033463;28;20141;-78
2021/10/31 05:45:38;;;;;;;9.07;4.80;;;;;;;2.53;100.00;95108.91;5034372;28;20486;-77
2021/10/31 05:48:04;;;;;;;8.75;4.82;;;;;;;2.47;100.00;95109.00;5029463;28;20081;-78
2021/10/31 05:50:30;;;;;;;9.15;4.75;;;;;;;2.44;100.00;95110.25;5031477;28;20053;-78
2021/10/31 05:52:56;;;;;;;8.77;4.78;;;;;;;2.62;100.00;95116.34;5015096;28;20104;-77
2021/10/31 05:55:21;;;;;;;9.55;4.88;;;;;;;2.67;100.00;95113.84;5027112;28;20042;-77
2021/10/31 05:57:47;;;;;;;8.55;4.65;;;;;;;2.58;100.00;95108.97;5020287;28;20048;-78
2021/10/31 06:00:16;;;;;;;7.90;4.40;;;;;;;2.51;100.00;95105.72;5033141;28;20123;-78
2021/10/31 06:02:43;;;;;;;9.95;4.40;;;;;;;2.41;100.00;95101.13;5033116;28;20037;-78
2021/10/31 06:05:11;;;;;;;9.32;4.95;;;;;;;2.37;100.00;95099.19;5032340;28;20041;-78
2021/10/31 06:07:37;;;;;;;8.35;4.40;;;;;;;2.39;100.00;95097.16;5032562;28;20045;-78
2021/10/31 06:10:03;;;;;;;8.13;4.53;;;;;;;2.39;100.00;95102.34;5031987;28;20041;-77
2021/10/31 06:12:29;;;;;;;8.68;4.95;;;;;;;2.32;100.00;95097.28;5031627;28;20056;-77
2021/10/31 06:14:56;;;;;;;7.70;4.35;;;;;;;2.37;100.00;95102.59;5033736;28;20418;-78
2021/10/31 06:17:22;;;;;;;8.80;4.50;;;;;;;2.31;100.00;95100.09;5048032;28;20049;-77
2021/10/31 06:19:48;;;;;;;8.48;4.53;;;;;;;2.33;100.00;95101.47;5026834;28;20048;-77
2021/10/31 06:22:13;;;;;;;10.45;4.55;;;;;;;2.36;100.00;95102.81;5032467;28;20107;-78
2021/10/31 06:24:39;;;;;;;9.68;4.70;;;;;;;2.51;100.00;95097.16;5032315;28;20092;-77
2021/10/31 06:27:05;;;;;;;8.52;4.30;;;;;;;2.51;100.00;95105.72;5031267;28;20100;-78
2021/10/31 06:29:31;;;;;;;8.77;4.60;;;;;;;2.51;100.00;95105.72;5032489;28;20038;-78
2021/10/31 06:31:56;;;;;;;9.07;4.60;;;;;;;2.59;100.00;95097.59;5035481;28;20103;-78
2021/10/31 06:34:22;;;;;;;8.35;4.25;;;;;;;2.66;100.00;95101.84;5032335;28;20465;-77
2021/10/31 06:36:47;;;;;;;9.02;4.38;;;;;;;2.65;100.00;95098.47;5029683;28;20522;-78
2021/10/31 06:39:13;;;;;;;8.85;4.45;;;;;;;2.58;100.00;95090.78;5029197;28;20076;-78
2021/10/31 06:41:39;;;;;;;7.63;4.45;;;;;;;2.55;100.00;95091.25;5032817;28;20073;-78
2021/10/31 06:44:04;;;;;;;8.38;4.22;;;;;;;2.61;100.00;95089.56;5031531;28;20114;-77
2021/10/31 06:46:31;;;;;;;9.85;5.07;;;;;;;2.48;100.00;95095.78;5032213;28;20045;-78
2021/10/31 06:48:57;;;;;;;10.93;5.32;;;;;;;2.47;100.00;95089.03;5031029;28;20046;-78
2021/10/31 06:51:23;;;;;;;9.65;4.50;;;;;;;2.75;100.00;95090.09;5024655;28;20052;-77
2021/10/31 06:53:49;;;;;;;9.07;4.53;;;;;;;2.84;100.00;95093.13;5024455;28;20495;-78
2021/10/31 06:56:16;;;;;;;7.30;4.22;;;;;;;2.75;100.00;95090.09;5030810;28;20088;-78
2021/10/31 06:58:42;;;;;;;7.57;4.20;;;;;;;2.70;100.00;95087.38;5029423;28;20045;-78
2021/10/31 07:01:08;;;;;;;8.65;4.40;;;;;;;2.90;100.00;95082.59;5025504;28;20037;-77
2021/10/31 07:03:34;;;;;;;9.43;4.50;;;;;;;2.95;100.00;95092.31;5030680;28;20044;-78
2021/10/31 07:06:01;;;;;;;8.00;4.57;;;;;;;2.97;100.00;95089.47;5030822;28;20033;-77
2021/10/31 07:08:27;;;;;;;9.02;4.90;;;;;;;3.03;100.00;95085.94;5031196;28;20052;-78
2021/10/31 07:10:52;;;;;;;9.52;4.90;;;;;;;3.02;100.00;95079.19;5031309;28;20045;-78
2021/10/31 07:13:18;;;;;;;9.80;4.55;;;;;;;3.27;100.00;95077.00;5028307;28;20102;-77
2021/10/31 07:15:44;;;;;;;8.23;4.90;;;;;;;3.18;100.00;95075.81;5030097;28;20038;-78
2021/10/31 07:18:10;;;;;;;9.68;5.05;;;;;;;3.15;100.00;95078.91;5029037;28;20053;-78
2021/10/31 07:20:35;;;;;;;11.93;4.90;;;;;;;3.14;100.00;95072.09;5021430;28;20045;-77
2021/10/31 07:23:01;;;;;;;8.38;4.53;;;;;;;3.21;100.00;95072.75;5029794;28;20112;-77
2021/10/31 07:25:27;;;;;;;7.55;4.40;;;;;;;3.29;100.00;95072.38;5030483;28;20049;-78
2021/10/31 07:27:54;;;;;;;8.35;4.60;;;;;;;3.34;100.00;95076.09;5029857;28;20041;-78
2021/10/31 07:30:21;;;;;;;10.15;4.70;;;;;;;3.41;100.00;95076.75;5029621;28;20391;-78
2021/10/31 07:32:55;;;;;;;7.88;4.40;;;;;;;3.47;100.00;95065.38;5029483;28;20076;-78
2021/10/31 07:35:20;;;;;;;7.18;4.35;;;;;;;3.53;100.00;95064.44;5029391;28;20045;-78
2021/10/31 07:37:46;;;;;;;8.18;4.43;;;;;;;3.58;100.00;95061.94;5030884;28;20322;-77
2021/10/31 07:40:11;;;;;;;8.38;4.50;;;;;;;3.72;100.00;95072.03;5030598;28;20117;-78
2021/10/31 07:42:37;;;;;;;9.77;4.85;;;;;;;3.79;100.00;95067.44;5030536;28;20060;-78
2021/10/31 07:45:04;;;;;;;14.48;4.95;;;;;;;3.89;100.00;95072.81;5027721;28;20564;-77
2021/10/31 07:47:30;;;;;;;8.00;4.65;;;;;;;3.94;100.00;95059.88;5028770;28;20049;-77
2021/10/31 07:49:56;;;;;;;6.47;4.15;;;;;;;4.05;100.00;95054.81;5029909;28;20045;-77
2021/10/31 07:52:22;;;;;;;9.98;4.93;;;;;;;4.13;100.00;95054.41;5025995;28;20042;-78
2021/10/31 07:54:49;;;;;;;10.18;5.10;;;;;;;4.26;100.00;95061.88;5027322;28;20119;-78
2021/10/31 07:57:18;;;;;;;8.73;4.65;;;;;;;4.34;100.00;95058.09;5028003;28;20037;-78
2021/10/31 07:59:43;;;;;;;9.27;4.68;;;;;;;4.46;100.00;95061.38;5023980;28;20048;-77
2021/10/31 08:02:09;;;;;;;9.27;4.78;;;;;;;4.59;100.00;95055.00;5011580;28;20038;-78
2021/10/31 08:04:34;;;;;;;8.77;4.78;;;;;;;4.69;100.00;95049.91;5025522;28;20795;-78
2021/10/31 08:07:00;;;;;;;8.63;4.95;;;;;;;4.86;100.00;95043.84;5027922;28;20037;-77
2021/10/31 08:09:25;;;;;;;8.88;5.07;;;;;;;5.03;100.00;95044.56;5029359;28;20498;-78
2021/10/31 08:11:51;;;;;;;9.18;4.45;;;;;;;5.19;100.00;95039.50;5028580;28;20645;-77
2021/10/31 08:14:16;;;;;;;11.82;5.25;;;;;;;5.30;100.00;95038.56;5027794;28;20118;-78
2021/10/31 08:16:42;;;;;;;11.23;5.10;;;;;;;5.51;100.00;95038.72;5008841;28;20045;-78
2021/10/31 08:19:08;;;;;;;9.27;4.70;;;;;;;5.75;100.00;95035.78;5020551;28;20038;-78
2021/10/31 08:21:38;;;;;;;10.80;4.88;;;;;;;6.12;100.00;95035.00;5023170;28;20041;-77
2021/10/31 08:24:05;;;;;;;7.75;4.63;;;;;;;6.26;100.00;95035.34;5023850;28;20056;-77
2021/10/31 08:26:31;;;;;;;10.98;4.78;;;;;;;6.43;100.00;95037.81;5021882;28;20052;-77
2021/10/31 08:28:58;;;;;;;8.75;4.50;;;;;;;6.62;100.00;95025.84;5011443;28;20050;-75
2021/10/31 08:31:26;;;;;;;9.00;4.55;;;;;;;6.82;100.00;95029.59;5024795;28;20757;-77
2021/10/31 08:34:00;;;;;;;8.40;4.50;;;;;;;7.02;100.00;95019.16;5014678;28;20498;-77
2021/10/31 08:36:27;;;;;;;8.50;4.65;;;;;;;7.35;100.00;95022.38;5023024;28;20042;-77
2021/10/31 08:38:53;;;;;;;7.82;4.35;;;;;;;7.43;100.00;95008.75;5024041;28;20384;-76
2021/10/31 08:41:21;;;;;;;9.13;4.07;;;;;;;7.57;100.00;95008.25;5014385;28;20104;-76
2021/10/31 08:43:48;;;;;;;7.63;4.07;;;;;;;8.07;96.25;94996.13;5020398;28;20053;-76
2021/10/31 08:46:15;;;;;;;6.78;3.90;;;;;;;8.40;95.50;94999.19;5013861;28;20044;-76
2021/10/31 08:48:41;;;;;;;7.05;3.72;;;;;;;8.52;95.46;94992.88;5020120;28;20048;-78
2021/10/31 08:51:07;;;;;;;5.68;3.17;;;;;;;9.18;88.01;94987.31;5014680;28;20050;-77
2021/10/31 08:53:34;;;;;;;8.20;3.80;;;;;;;9.41;87.45;94985.06;5009042;28;20046;-76
2021/10/31 08:56:00;;;;;;;6.70;3.70;;;;;;;9.40;89.98;94982.69;5025967;28;20076;-76
2021/10/31 08:58:27;;;;;;;7.47;3.40;;;;;;;9.39;89.66;94981.13;5020078;28;20053;-75
2021/10/31 09:00:53;;;;;;;6.80;3.55;;;;;;;9.51;88.38;94974.47;5027540;28;20438;-77
2021/10/31 09:03:19;;;;;;;6.55;3.50;;;;;;;9.63;87.14;94968.84;5027799;28;20081;-76
2021/10/31 09:05:45;;;;;;;6.18;3.20;;;;;;;10.16;82.43;94968.06;5022548;28;20093;-76
2021/10/31 09:08:10;;;;;;;5.93;2.85;;;;;;;10.51;78.56;94955.59;5024635;28;20502;-76
2021/10/31 09:10:40;;;;;;;6.18;2.72;;;;;;;10.98;77.06;94950.53;5026838;28;20037;-76
2021/10/31 09:13:06;;;;;;;6.25;2.75;;;;;;;10.76;81.73;94948.47;5009610;28;20516;-76
2021/10/31 09:15:32;;;;;;;5.88;2.78;;;;;;;10.69;82.36;94948.03;5023750;28;20095;-76
2021/10/31 09:18:02;;;;;;;6.18;2.78;;;;;;;10.87;80.39;94939.34;5031511;28;20045;-76
2021/10/31 09:20:29;;;;;;;4.57;2.72;;;;;;;10.74;79.77;94929.53;5031566;28;20038;-76
2021/10/31 09:22:59;;;;;;;5.00;2.85;;;;;;;11.20;75.53;94936.75;5030904;28;20041;-76
2021/10/31 09:25:25;;;;;;;7.28;2.92;;;;;;;11.14;78.11;94932.66;5031062;28;20044;-77
2021/10/31 09:27:53;;;;;;;5.55;2.60;;;;;;;11.19;76.76;94922.06;5027669;28;20041;-77
2021/10/31 09:30:20;;;;;;;6.15;2.60;;;;;;;11.56;73.29;94917.75;5030636;28;20045;-76
2021/10/31 09:32:48;;;;;;;5.30;2.47;;;;;;;12.98;64.11;94917.13;5029846;28;20063;-77
2021/10/31 09:35:41;;;;;;;4.43;2.30;;;;;;;15.25;56.81;94917.22;5029094;28;20123;-76
2021/10/31 09:38:07;;;;;;;7.63;2.63;;;;;;;16.35;54.21;94910.69;5015641;28;20050;-76
2021/10/31 09:40:35;;;;;;;5.38;2.28;;;;;;;16.83;51.13;94910.56;5016289;28;20305;-75
2021/10/31 09:43:02;;;;;;;5.60;2.70;;;;;;;17.71;48.70;94906.06;5030427;28;20045;-76
2021/10/31 09:45:30;;;;;;;5.25;2.70;;;;;;;17.90;46.63;94896.78;5030812;28;20049;-76
2021/10/31 09:48:09;;;;;;;4.10;2.40;;;;;;;18.22;49.21;94891.75;5031077;28;20216;-76
2021/10/31 09:50:41;;;;;;;6.97;2.72;;;;;;;19.17;47.56;94892.25;5031119;28;20042;-78
2021/10/31 09:53:07;;;;;;;5.05;2.90;;;;;;;19.37;42.35;94889.72;5030190;28;20103;-77
2021/10/31 09:55:34;;;;;;;7.05;2.38;;;;;;;19.33;43.44;94880.84;5031054;28;20042;-76
2021/10/31 09:58:03;;;;;;;5.30;2.45;;;;;;;19.26;41.90;94883.31;5041942;28;20053;-77
2021/10/31 10:00:38;;;;;;;5.38;2.72;;;;;;;19.21;41.54;94871.78;5011281;28;20042;-76
2021/10/31 10:06:14;;;;;;;4.05;2.50;;;;;;;19.66;41.15;94864.53;5022448;28;20038;-76
2021/10/31 10:08:57;;;;;;;5.38;2.90;;;;;;;19.63;38.74;94869.81;5024762;28;20042;-76
2021/10/31 10:11:22;;;;;;;5.75;2.42;;;;;;;19.53;39.67;94855.84;5026518;28;20067;-76
2021/10/31 10:13:48;;;;;;;3.92;2.50;;;;;;;19.97;39.42;94852.38;5024503;28;20037;-76
2021/10/31 10:16:29;;;;;;;5.72;3.25;;;;;;;20.38;37.26;94849.47;5029969;28;20834;-76
2021/10/31 10:18:58;;;;;;;4.75;2.70;;;;;;;20.55;39.56;94843.72;5025981;28;20041;-76
2021/10/31 10:21:29;;;;;;;5.25;2.60;;;;;;;20.90;40.47;94837.63;5028469;28;20037;-76
2021/10/31 10:24:01;;;;;;;5.03;2.40;;;;;;;21.43;36.11;94834.41;5025081;28;20038;-76
2021/10/31 10:26:33;;;;;;;5.38;2.53;;;;;;;20.96;39.23;94829.28;5018886;28;20045;-77
2021/10/31 10:29:14;;;;;;;4.60;2.63;;;;;;;22.01;37.28;94821.19;5023844;28;20053;-76
2021/10/31 10:31:42;;;;;;;3.80;2.35;;;;;;;22.29;38.34;94810.88;5028423;28;20041;-76
2021/10/31 10:34:11;;;;;;;5.55;2.85;;;;;;;23.10;33.42;94803.50;5027201;28;20531;-76
2021/10/31 10:36:41;;;;;;;4.97;2.50;;;;;;;22.95;33.08;94797.19;5025502;28;20042;-76
2021/10/31 10:39:11;;;;;;;5.88;2.58;;;;;;;22.59;37.55;94786.03;5026276;28;20062;-76
2021/10/31 10:42:02;;;;;;;5.75;2.70;;;;;;;21.72;37.60;94783.25;5049511;28;20025;-75
2021/10/31 10:44:29;;;;;;;4.68;2.70;;;;;;;22.28;36.53;94766.47;5034251;28;20052;-76
2021/10/31 10:47:08;;;;;;;5.38;2.63;;;;;;;20.88;34.34;94754.28;5041870;28;20066;-76
2021/10/31 10:49:39;;;;;;;5.03;2.65;;;;;;;20.80;37.38;94751.81;5035612;28;20125;-76
2021/10/31 10:52:31;;;;;;;5.53;2.88;;;;;;;20.94;36.88;94747.50;5039765;28;20029;-76
2021/10/31 10:55:23;;;;;;;4.60;2.80;;;;;;;22.51;35.46;94746.09;5040299;28;20048;-76
2021/10/31 10:57:53;;;;;;;4.63;2.65;;;;;;;23.52;32.30;94753.28;5053015;28;20054;-76
2021/10/31 11:00:21;;;;;;;10.38;3.10;;;;;;;23.28;34.24;94755.38;5054838;28;20042;-75
2021/10/31 11:02:49;;;;;;;7.22;2.67;;;;;;;23.45;31.96;94742.50;5036545;28;20297;-75
2021/10/31 11:05:19;;;;;;;4.43;2.75;;;;;;;23.10;32.68;94738.31;5047437;28;20038;-77
2021/10/31 11:07:50;;;;;;;6.07;3.10;;;;;;;21.70;36.25;94737.31;5031910;28;20553;-76
2021/10/31 11:10:24;;;;;;;4.53;2.53;;;;;;;21.31;33.82;94732.88;5029685;28;20087;-76
2021/10/31 11:12:53;;;;;;;7.28;3.00;;;;;;;22.65;31.58;94741.66;5024623;28;20052;-76
2021/10/31 11:15:23;;;;;;;6.00;2.90;;;;;;;23.00;31.98;94734.38;5028343;28;20445;-76
2021/10/31 11:17:52;;;;;;;5.25;2.70;;;;;;;22.44;32.00;94730.69;5027010;28;20042;-76
2021/10/31 11:20:24;;;;;;;4.57;2.72;;;;;;;22.40;32.23;94719.19;5021663;28;20100;-77
2021/10/31 11:22:53;;;;;;;5.68;3.10;;;;;;;23.02;35.37;94716.78;5023767;28;20041;-78
2021/10/31 11:25:21;;;;;;;6.32;3.00;;;;;;;22.39;34.55;94718.38;5009611;28;20041;-77
2021/10/31 11:27:48;;;;;;;8.13;3.00;;;;;;;23.01;31.98;94714.44;5027895;28;20049;-78
2021/10/31 11:30:16;;;;;;;5.47;2.65;;;;;;;23.54;32.58;94708.03;5025319;28;20526;-77
2021/10/31 11:32:43;;;;;;;5.35;3.03;;;;;;;22.99;34.91;94711.38;5028067;28;20056;-77
2021/10/31 11:35:12;;;;;;;4.57;3.00;;;;;;;23.10;32.53;94700.72;5027467;28;20046;-76
2021/10/31 11:37:46;;;;;;;5.32;2.85;;;;;;;22.26;33.29;94699.06;5023577;28;20038;-77